createdAt,value
2018-02-09T00:00:42.775Z,0.90
2018-02-09T00:03:11.028Z,0.90
2018-02-09T00:05:38.504Z,0.90
2018-02-09T00:08:06.588Z,0.90
2018-02-09T00:10:34.079Z,0.90
2018-02-09T00:13:01.544Z,0.80
2018-02-09T00:15:29.019Z,0.90
2018-02-09T00:17:56.496Z,0.90
2018-02-09T00:20:23.967Z,0.90
2018-02-09T00:22:52.751Z,1.00
2018-02-09T00:25:20.231Z,0.90
2018-02-09T00:27:48.495Z,1.00
2018-02-09T00:30:16.066Z,0.90
2018-02-09T00:32:44.306Z,0.90
2018-02-09T00:35:11.984Z,0.90
2018-02-09T00:37:39.477Z,0.90
2018-02-09T00:40:07.784Z,0.90
2018-02-09T00:42:36.999Z,0.90
2018-02-09T00:45:04.467Z,0.90
2018-02-09T00:47:31.936Z,0.90
2018-02-09T00:49:59.424Z,0.90
2018-02-09T00:52:26.892Z,0.90
2018-02-09T00:54:54.361Z,0.90
2018-02-09T00:57:21.829Z,1.00
2018-02-09T00:59:49.325Z,1.00
2018-02-09T01:02:16.787Z,1.00
2018-02-09T01:04:45.027Z,1.10
2018-02-09T01:07:12.512Z,1.00
2018-02-09T01:09:39.989Z,1.10
2018-02-09T01:12:08.361Z,1.00
2018-02-09T01:14:35.879Z,1.00
2018-02-09T01:17:03.355Z,1.00
2018-02-09T01:19:30.840Z,0.90
2018-02-09T01:21:58.292Z,0.90
2018-02-09T01:24:25.784Z,0.90
2018-02-09T01:26:53.255Z,0.80
2018-02-09T01:29:20.758Z,0.90
2018-02-09T01:31:49.738Z,0.90
2018-02-09T01:34:17.203Z,0.90
2018-02-09T01:36:44.717Z,1.00
2018-02-09T01:39:12.171Z,1.00
2018-02-09T01:41:39.643Z,1.00
2018-02-09T01:44:07.104Z,1.00
2018-02-09T01:46:34.567Z,1.00
2018-02-09T01:49:02.055Z,0.90
2018-02-09T01:51:29.531Z,0.80
2018-02-09T01:53:57.775Z,0.80
2018-02-09T01:56:25.250Z,0.80
2018-02-09T01:58:52.723Z,0.90
2018-02-09T02:01:20.980Z,0.90
2018-02-09T02:03:48.439Z,0.90
2018-02-09T02:06:15.930Z,0.80
2018-02-09T02:08:43.396Z,0.90
2018-02-09T02:11:10.865Z,0.90
2018-02-09T02:13:39.196Z,1.00
2018-02-09T02:16:06.659Z,0.90
2018-02-09T02:18:35.173Z,1.00
2018-02-09T02:21:02.635Z,0.90
2018-02-09T02:23:30.091Z,0.90
2018-02-09T02:25:57.558Z,0.80
2018-02-09T02:28:25.013Z,0.90
2018-02-09T02:30:52.523Z,1.00
2018-02-09T02:33:19.986Z,1.00
2018-02-09T02:35:48.259Z,1.10
2018-02-09T02:38:16.536Z,1.00
2018-02-09T02:40:44.766Z,1.00
2018-02-09T02:43:12.246Z,1.00
2018-02-09T02:45:39.704Z,1.00
2018-02-09T02:48:07.180Z,1.00
2018-02-09T02:50:34.653Z,1.00
2018-02-09T02:53:02.900Z,0.90
2018-02-09T02:55:30.361Z,0.90
2018-02-09T02:57:57.828Z,0.90
2018-02-09T03:00:26.844Z,0.90
2018-02-09T03:02:55.074Z,1.00
2018-02-09T03:05:22.548Z,1.00
2018-02-09T03:07:50.019Z,1.00
2018-02-09T03:10:18.260Z,0.90
2018-02-09T03:12:45.751Z,0.90
2018-02-09T03:15:14.009Z,1.10
2018-02-09T03:17:41.482Z,1.00
2018-02-09T03:20:09.728Z,0.90
2018-02-09T03:22:37.204Z,0.90
2018-02-09T03:25:04.672Z,0.90
2018-02-09T03:27:32.918Z,1.00
2018-02-09T03:30:00.380Z,1.00
2018-02-09T03:32:27.852Z,1.00
2018-02-09T03:34:55.311Z,1.10
2018-02-09T03:37:24.300Z,0.90
2018-02-09T03:39:53.272Z,0.90
2018-02-09T03:42:20.741Z,0.90
2018-02-09T03:44:48.207Z,0.90
2018-02-09T03:47:17.351Z,1.00
2018-02-09T03:49:44.869Z,0.90
2018-02-09T03:52:12.329Z,0.90
2018-02-09T03:54:39.811Z,0.90
2018-02-09T03:57:07.286Z,0.90
2018-02-09T03:59:34.752Z,0.90
2018-02-09T04:02:02.239Z,0.90
2018-02-09T04:04:29.716Z,1.00
2018-02-09T04:06:57.966Z,1.00
2018-02-09T04:09:25.436Z,1.00
2018-02-09T04:11:52.911Z,1.00
2018-02-09T04:14:20.387Z,1.00
2018-02-09T04:16:48.615Z,1.00
2018-02-09T04:19:16.195Z,1.00
2018-02-09T04:21:44.431Z,0.90
2018-02-09T04:24:11.923Z,0.90
2018-02-09T04:26:39.498Z,0.90
2018-02-09T04:29:08.535Z,0.90
2018-02-09T04:31:35.996Z,0.90
2018-02-09T04:34:03.474Z,1.00
2018-02-09T04:36:30.932Z,1.00
2018-02-09T04:38:58.411Z,1.00
2018-02-09T04:41:25.882Z,1.00
2018-02-09T04:43:54.118Z,1.00
2018-02-09T04:46:21.593Z,1.00
2018-02-09T04:48:49.057Z,1.00
2018-02-09T04:51:16.568Z,0.80
2018-02-09T04:53:45.066Z,0.90
2018-02-09T04:56:12.578Z,0.90
2018-02-09T04:58:40.010Z,0.90
2018-02-09T05:01:08.263Z,0.90
2018-02-09T05:03:36.513Z,0.90
2018-02-09T05:06:03.967Z,0.90
2018-02-09T05:08:31.451Z,0.90
2018-02-09T05:10:58.930Z,0.90
2018-02-09T05:13:26.415Z,0.90
2018-02-09T05:15:55.577Z,1.00
2018-02-09T05:18:23.051Z,0.90
2018-02-09T05:20:50.523Z,0.90
2018-02-09T05:23:18.773Z,0.90
2018-02-09T05:25:46.258Z,0.90
2018-02-09T05:28:14.571Z,0.90
2018-02-09T05:30:42.041Z,0.90
2018-02-09T05:33:09.504Z,1.00
2018-02-09T05:35:36.967Z,0.90
2018-02-09T05:38:05.211Z,0.90
2018-02-09T05:40:33.886Z,0.90
2018-02-09T05:43:02.120Z,0.90
2018-02-09T05:45:29.586Z,0.90
2018-02-09T05:47:58.011Z,1.00
2018-02-09T05:50:25.471Z,1.00
2018-02-09T05:52:52.939Z,1.00
2018-02-09T05:55:20.419Z,1.00
2018-02-09T05:57:47.892Z,0.90
2018-02-09T06:00:16.840Z,1.00
2018-02-09T06:02:44.327Z,1.00
2018-02-09T06:05:12.012Z,1.00
2018-02-09T06:07:39.483Z,1.10
2018-02-09T06:10:08.296Z,1.00
2018-02-09T06:12:35.860Z,1.00
2018-02-09T06:15:03.324Z,1.00
2018-02-09T06:17:30.788Z,1.00
2018-02-09T06:19:58.258Z,1.00
2018-02-09T06:22:26.950Z,1.00
2018-02-09T06:24:54.502Z,1.00
2018-02-09T06:27:21.940Z,1.10
2018-02-09T06:29:49.450Z,1.00
2018-02-09T06:32:16.934Z,1.00
2018-02-09T06:34:45.172Z,1.00
2018-02-09T06:37:12.644Z,1.00
2018-02-09T06:39:40.119Z,1.00
2018-02-09T06:42:08.363Z,1.00
2018-02-09T06:44:36.932Z,1.00
2018-02-09T06:47:04.404Z,1.00
2018-02-09T06:49:31.863Z,1.00
2018-02-09T06:51:59.325Z,1.00
2018-02-09T06:54:26.798Z,1.00
2018-02-09T06:56:55.026Z,1.10
2018-02-09T06:59:22.521Z,1.10
2018-02-09T07:01:50.075Z,1.00
2018-02-09T07:04:17.552Z,1.10
2018-02-09T07:06:46.012Z,1.10
2018-02-09T07:09:13.495Z,1.10
2018-02-09T07:11:41.735Z,1.00
2018-02-09T07:14:09.199Z,1.00
2018-02-09T07:16:38.179Z,1.00
2018-02-09T07:19:05.648Z,1.00
2018-02-09T07:21:33.116Z,1.10
2018-02-09T07:24:00.584Z,1.00
2018-02-09T07:26:29.623Z,1.00
2018-02-09T07:28:57.123Z,1.00
2018-02-09T07:31:24.584Z,1.10
2018-02-09T07:33:52.826Z,1.00
2018-02-09T07:36:20.293Z,1.00
2018-02-09T07:38:47.766Z,1.00
2018-02-09T07:41:15.220Z,1.00
2018-02-09T07:43:42.708Z,1.00
2018-02-09T07:46:10.930Z,1.00
2018-02-09T07:48:38.411Z,1.00
2018-02-09T07:51:06.987Z,1.10
2018-02-09T07:53:34.461Z,1.10
2018-02-09T07:56:01.943Z,1.20
2018-02-09T07:58:30.178Z,1.20
2018-02-09T08:00:57.639Z,1.20
2018-02-09T08:03:25.119Z,1.20
2018-02-09T08:05:52.574Z,1.30
2018-02-09T08:08:20.808Z,1.20
2018-02-09T08:10:48.275Z,1.20
2018-02-09T08:13:16.957Z,1.30
2018-02-09T08:15:44.437Z,1.30
2018-02-09T08:18:11.896Z,1.30
2018-02-09T08:20:39.362Z,1.20
2018-02-09T08:23:06.914Z,1.30
2018-02-09T08:25:34.395Z,1.30
2018-02-09T08:28:01.876Z,1.40
2018-02-09T08:30:29.355Z,1.40
2018-02-09T08:35:29.780Z,1.40
2018-02-09T08:37:57.300Z,1.50
2018-02-09T08:40:25.564Z,1.40
2018-02-09T08:42:53.037Z,1.40
2018-02-09T08:45:20.659Z,1.40
2018-02-09T08:47:48.147Z,1.40
2018-02-09T08:50:15.644Z,1.40
2018-02-09T08:52:44.098Z,1.50
2018-02-09T08:55:12.368Z,1.40
2018-02-09T08:57:39.839Z,1.40
2018-02-09T09:00:08.089Z,1.50
2018-02-09T09:02:35.619Z,1.50
2018-02-09T09:05:03.257Z,1.50
2018-02-09T09:07:30.828Z,1.60
2018-02-09T09:09:58.351Z,1.60
2018-02-09T09:12:26.677Z,1.60
2018-02-09T09:14:54.226Z,1.60
2018-02-09T09:17:21.694Z,1.50
2018-02-09T09:19:49.213Z,1.60
2018-02-09T09:22:17.458Z,1.50
2018-02-09T09:24:45.728Z,1.70
2018-02-09T09:27:13.220Z,1.70
2018-02-09T09:29:41.500Z,1.60
2018-02-09T09:32:09.756Z,1.70
2018-02-09T09:34:38.013Z,1.70
2018-02-09T09:37:05.508Z,1.70
2018-02-09T09:39:33.803Z,1.70
2018-02-09T09:42:01.288Z,1.70
2018-02-09T09:44:28.786Z,1.70
2018-02-09T09:46:57.039Z,1.80
2018-02-09T09:49:24.506Z,1.70
2018-02-09T09:51:52.004Z,1.80
2018-02-09T09:54:19.483Z,1.80
2018-02-09T09:56:46.974Z,1.80
2018-02-09T09:59:14.482Z,1.80
2018-02-09T10:01:42.036Z,1.80
2018-02-09T10:04:09.511Z,1.80
2018-02-09T10:06:36.995Z,1.80
2018-02-09T10:09:04.515Z,1.70
2018-02-09T10:11:31.992Z,1.70
2018-02-09T10:13:59.460Z,1.70
2018-02-09T10:16:26.953Z,1.60
2018-02-09T10:18:55.196Z,1.70
2018-02-09T10:21:22.719Z,1.60
2018-02-09T10:23:50.204Z,1.70
2018-02-09T10:26:19.962Z,1.70
2018-02-09T10:28:48.229Z,1.70
2018-02-09T10:31:17.904Z,1.80
2018-02-09T10:33:45.387Z,1.80
2018-02-09T10:36:12.851Z,1.70
2018-02-09T10:38:40.340Z,1.80
2018-02-09T10:41:08.587Z,1.80
2018-02-09T10:43:36.075Z,1.80
2018-02-09T10:46:03.542Z,1.80
2018-02-09T10:48:31.036Z,1.70
2018-02-09T10:50:58.522Z,1.70
2018-02-09T10:53:26.024Z,1.70
2018-02-09T10:55:53.511Z,1.70
2018-02-09T10:58:21.014Z,1.80
2018-02-09T11:00:54.437Z,1.80
2018-02-09T11:03:23.568Z,1.80
2018-02-09T11:05:51.080Z,1.80
2018-02-09T11:08:18.565Z,1.90
2018-02-09T11:10:48.435Z,1.80
2018-02-09T11:13:16.696Z,1.90
2018-02-09T11:15:44.948Z,1.80
2018-02-09T11:18:12.435Z,1.80
2018-02-09T11:20:40.698Z,1.80
2018-02-09T11:23:08.208Z,1.90
2018-02-09T11:25:35.676Z,1.90
2018-02-09T11:28:03.195Z,1.90
2018-02-09T11:30:31.467Z,2.00
2018-02-09T11:32:59.725Z,2.10
2018-02-09T11:35:28.069Z,2.10
2018-02-09T11:37:55.542Z,2.10
2018-02-09T11:40:23.028Z,2.20
2018-02-09T11:42:51.268Z,2.30
2018-02-09T11:45:18.746Z,2.30
2018-02-09T11:47:46.214Z,2.30
2018-02-09T11:50:14.543Z,2.40
2018-02-09T11:52:42.010Z,2.30
2018-02-09T11:55:09.491Z,2.40
2018-02-09T11:57:37.003Z,2.50
2018-02-09T12:00:04.492Z,2.50
2018-02-09T12:02:31.984Z,2.60
2018-02-09T12:04:59.487Z,2.60
2018-02-09T12:07:26.972Z,2.60
2018-02-09T12:09:54.472Z,2.60
2018-02-09T12:12:22.708Z,2.60
2018-02-09T12:14:50.995Z,2.70
2018-02-09T12:17:19.252Z,2.70
2018-02-09T12:19:46.752Z,2.70
2018-02-09T12:22:14.988Z,2.90
2018-02-09T12:24:42.504Z,2.90
2018-02-09T12:27:09.986Z,2.90
2018-02-09T12:29:37.468Z,2.80
2018-02-09T12:32:04.948Z,2.80
2018-02-09T12:34:32.458Z,2.80
2018-02-09T12:36:59.932Z,2.80
2018-02-09T12:39:27.450Z,2.90
2018-02-09T12:41:54.999Z,3.00
2018-02-09T12:44:23.245Z,2.90
2018-02-09T12:46:51.516Z,3.00
2018-02-09T12:49:18.996Z,2.90
2018-02-09T12:51:47.256Z,3.00
2018-02-09T12:54:14.734Z,2.90
2018-02-09T12:56:42.999Z,2.90
2018-02-09T12:59:10.475Z,2.90
2018-02-09T13:01:38.743Z,3.00
2018-02-09T13:04:06.998Z,3.00
2018-02-09T13:06:34.500Z,3.00
2018-02-09T13:09:02.992Z,2.90
2018-02-09T13:11:30.479Z,3.00
2018-02-09T13:13:57.950Z,3.10
2018-02-09T13:16:25.441Z,3.10
2018-02-09T13:18:53.691Z,3.30
2018-02-09T13:21:21.180Z,3.30
2018-02-09T13:24:01.659Z,3.30
2018-02-09T13:26:29.149Z,3.30
2018-02-09T13:28:59.645Z,3.30
2018-02-09T13:31:27.147Z,3.30
2018-02-09T13:33:54.619Z,3.30
2018-02-09T13:36:33.854Z,3.20
2018-02-09T13:39:01.371Z,3.20
2018-02-09T13:41:28.841Z,3.10
2018-02-09T13:43:56.318Z,3.20
2018-02-09T13:46:23.798Z,3.20
2018-02-09T13:48:52.495Z,3.20
2018-02-09T13:51:19.982Z,3.20
2018-02-09T13:53:47.468Z,3.30
2018-02-09T13:56:15.708Z,3.20
2018-02-09T13:58:44.135Z,3.20
2018-02-09T14:01:11.628Z,3.20
2018-02-09T14:03:39.169Z,3.20
2018-02-09T14:06:07.396Z,3.10
2018-02-09T14:08:35.344Z,3.10
2018-02-09T14:11:03.596Z,3.10
2018-02-09T14:13:31.915Z,3.20
2018-02-09T14:15:59.380Z,3.10
2018-02-09T14:18:26.887Z,3.20
2018-02-09T14:20:55.140Z,3.20
2018-02-09T14:23:22.621Z,3.20
2018-02-09T14:25:50.872Z,3.10
2018-02-09T14:28:18.377Z,3.10
2018-02-09T14:30:45.856Z,3.10
2018-02-09T14:33:13.358Z,3.10
2018-02-09T14:35:42.231Z,3.10
2018-02-09T14:38:10.497Z,3.10
2018-02-09T14:40:37.956Z,3.10
2018-02-09T14:43:05.448Z,3.10
2018-02-09T14:45:33.700Z,3.10
2018-02-09T14:48:02.447Z,3.10
2018-02-09T14:50:30.722Z,3.10
2018-02-09T14:52:58.227Z,3.10
2018-02-09T14:55:26.477Z,3.10
2018-02-09T14:57:53.953Z,3.10
2018-02-09T15:00:21.462Z,3.10
2018-02-09T15:02:49.728Z,3.00
2018-02-09T15:05:17.231Z,3.00
2018-02-09T15:07:44.734Z,3.00
2018-02-09T15:10:12.981Z,2.90
2018-02-09T15:12:40.471Z,2.90
2018-02-09T15:15:08.732Z,2.80
2018-02-09T15:17:36.989Z,2.80
2018-02-09T15:20:04.497Z,2.80
2018-02-09T15:22:32.006Z,2.80
2018-02-09T15:24:59.487Z,2.80
2018-02-09T15:30:10.456Z,2.70
2018-02-09T15:32:37.925Z,2.70
2018-02-09T15:35:05.410Z,2.70
2018-02-09T15:37:32.888Z,2.70
2018-02-09T15:40:00.368Z,2.70
2018-02-09T15:42:27.841Z,2.70
2018-02-09T15:44:55.335Z,2.70
2018-02-09T15:47:23.585Z,2.70
2018-02-09T15:49:51.124Z,2.70
2018-02-09T15:52:18.596Z,2.70
2018-02-09T15:54:46.856Z,2.60
2018-02-09T16:00:08.311Z,2.60
2018-02-09T16:02:35.784Z,2.60
2018-02-09T16:05:04.028Z,2.60
2018-02-09T16:07:31.504Z,2.60
2018-02-09T16:09:59.003Z,2.60
2018-02-09T16:12:26.483Z,2.60
2018-02-09T16:14:54.029Z,2.60
2018-02-09T16:17:21.516Z,2.60
2018-02-09T16:19:49.016Z,2.50
2018-02-09T16:22:17.260Z,2.60
2018-02-09T16:24:50.593Z,2.50
2018-02-09T16:27:18.843Z,2.50
2018-02-09T16:29:46.319Z,2.50
2018-02-09T16:32:14.571Z,2.50
2018-02-09T16:34:43.084Z,2.50
2018-02-09T16:37:11.378Z,2.50
2018-02-09T16:39:38.916Z,2.50
2018-02-09T16:42:07.157Z,2.60
2018-02-09T16:44:34.656Z,2.50
2018-02-09T16:47:03.731Z,2.60
2018-02-09T16:49:32.987Z,2.60
2018-02-09T16:52:00.514Z,2.60
2018-02-09T16:54:28.763Z,2.60
2018-02-09T16:56:56.310Z,2.50
2018-02-09T16:59:23.765Z,2.50
2018-02-09T17:02:15.079Z,2.50
2018-02-09T17:04:42.554Z,2.50
2018-02-09T17:07:10.043Z,2.40
2018-02-09T17:09:37.533Z,2.40
2018-02-09T17:12:05.009Z,2.40
2018-02-09T17:14:33.441Z,2.40
2018-02-09T17:17:00.940Z,2.30
2018-02-09T17:19:30.287Z,2.30
2018-02-09T17:21:57.776Z,2.40
2018-02-09T17:24:25.247Z,2.40
2018-02-09T17:26:52.736Z,2.30
2018-02-09T17:29:20.216Z,2.40
2018-02-09T17:31:48.468Z,2.30
2018-02-09T17:34:16.718Z,2.30
2018-02-09T17:36:44.205Z,2.30
2018-02-09T17:39:13.179Z,2.10
2018-02-09T17:41:41.353Z,2.20
2018-02-09T17:44:09.610Z,2.10
2018-02-09T17:46:37.155Z,2.10
2018-02-09T17:49:04.635Z,2.20
2018-02-09T17:51:38.749Z,2.20
2018-02-09T17:54:06.229Z,2.20
2018-02-09T17:56:33.705Z,2.10
2018-02-09T17:59:01.968Z,2.10
2018-02-09T18:01:29.424Z,2.10
2018-02-09T18:03:57.696Z,2.00
2018-02-09T18:06:25.178Z,2.00
2018-02-09T18:09:05.106Z,1.90
2018-02-09T18:11:32.589Z,1.90
2018-02-09T18:16:54.605Z,1.90
2018-02-09T18:19:22.147Z,1.90
2018-02-09T18:21:49.633Z,1.90
2018-02-09T18:24:41.355Z,1.90
2018-02-09T18:27:08.859Z,1.90
2018-02-09T18:29:36.356Z,1.90
2018-02-09T18:32:03.812Z,2.00
2018-02-09T18:34:31.438Z,1.90
2018-02-09T18:36:59.683Z,2.00
2018-02-09T18:39:27.920Z,2.00
2018-02-09T18:41:55.413Z,1.90
2018-02-09T18:44:23.668Z,1.90
2018-02-09T18:46:51.332Z,1.90
2018-02-09T18:49:20.324Z,1.90
2018-02-09T18:51:49.312Z,1.90
2018-02-09T18:54:18.009Z,1.90
2018-02-09T18:56:46.252Z,1.80
2018-02-09T18:59:13.731Z,1.80
2018-02-09T19:01:41.354Z,1.90
2018-02-09T19:04:27.853Z,1.90
2018-02-09T19:06:55.320Z,1.90
2018-02-09T19:09:23.515Z,1.90
2018-02-09T19:11:50.993Z,1.90
2018-02-09T19:17:18.907Z,1.90
2018-02-09T19:22:40.699Z,1.80
2018-02-09T19:25:25.112Z,1.80
2018-02-09T19:28:06.160Z,1.80
2018-02-09T19:30:35.251Z,1.80
2018-02-09T19:33:02.737Z,1.80
2018-02-09T19:35:30.995Z,1.80
2018-02-09T19:37:58.469Z,1.80
2018-02-09T19:40:26.723Z,1.80
2018-02-09T19:42:55.701Z,1.80
2018-02-09T19:45:23.775Z,1.80
2018-02-09T19:47:51.272Z,1.80
2018-02-09T19:50:19.516Z,1.80
2018-02-09T19:52:47.015Z,1.80
2018-02-09T19:58:08.794Z,1.80
2018-02-09T20:00:36.289Z,1.70
2018-02-09T20:05:57.391Z,1.60
2018-02-09T20:08:24.860Z,1.70
2018-02-09T20:10:53.965Z,1.70
2018-02-09T20:13:43.156Z,1.70
2018-02-09T20:16:11.421Z,1.60
2018-02-09T20:18:40.166Z,1.60
2018-02-09T20:21:07.658Z,1.50
2018-02-09T20:23:35.155Z,1.50
2018-02-09T20:26:02.648Z,1.50
2018-02-09T20:28:30.118Z,1.60
2018-02-09T20:30:57.603Z,1.50
2018-02-09T20:33:25.890Z,1.60
2018-02-09T20:35:54.164Z,1.60
2018-02-09T20:38:34.554Z,1.60
2018-02-09T20:41:02.899Z,1.60
2018-02-09T20:43:31.152Z,1.70
2018-02-09T20:48:51.610Z,1.70
2018-02-09T20:51:19.093Z,1.70
2018-02-09T20:53:46.579Z,1.70
2018-02-09T20:56:14.071Z,1.70
2018-02-09T20:58:41.549Z,1.70
2018-02-09T21:01:09.028Z,1.70
2018-02-09T21:03:36.501Z,1.70
2018-02-09T21:06:03.994Z,1.70
2018-02-09T21:08:33.391Z,1.70
2018-02-09T21:11:01.658Z,1.70
2018-02-09T21:13:29.894Z,1.70
2018-02-09T21:15:57.412Z,1.70
2018-02-09T21:18:24.883Z,1.70
2018-02-09T21:20:52.381Z,1.60
2018-02-09T21:23:19.859Z,1.70
2018-02-09T21:25:48.115Z,1.60
2018-02-09T21:28:15.622Z,1.60
2018-02-09T21:30:43.149Z,1.60
2018-02-09T21:33:10.629Z,1.60
2018-02-09T21:35:38.889Z,1.50
2018-02-09T21:38:06.371Z,1.50
2018-02-09T21:40:33.844Z,1.60
2018-02-09T21:45:35.178Z,1.50
2018-02-09T21:48:04.483Z,1.50
2018-02-09T21:50:32.740Z,1.50
2018-02-09T21:53:01.763Z,1.60
2018-02-09T21:55:29.243Z,1.60
2018-02-09T22:03:42.319Z,1.60
2018-02-09T22:06:09.838Z,1.60
2018-02-09T22:08:38.079Z,1.60
2018-02-09T22:11:05.563Z,1.60
2018-02-09T22:13:33.837Z,1.60
2018-02-09T22:16:02.095Z,1.60
2018-02-09T22:21:22.740Z,1.60
2018-02-09T22:23:50.210Z,1.60
2018-02-09T22:26:17.717Z,1.60
2018-02-09T22:28:45.994Z,1.60
2018-02-09T22:31:13.464Z,1.60
2018-02-09T22:33:40.949Z,1.60
2018-02-09T22:36:08.429Z,1.60
2018-02-09T22:38:36.476Z,1.60
2018-02-09T22:41:03.953Z,1.50
2018-02-09T22:43:31.764Z,1.50
2018-02-09T22:46:00.769Z,1.40
2018-02-09T22:48:28.377Z,1.40
2018-02-09T22:50:55.856Z,1.40
2018-02-09T22:53:23.443Z,1.40
2018-02-09T22:55:50.915Z,1.50
2018-02-09T22:58:19.173Z,1.50
2018-02-09T23:00:46.651Z,1.50
2018-02-09T23:06:07.574Z,1.50
2018-02-09T23:08:35.825Z,1.50
2018-02-09T23:11:03.300Z,1.50
2018-02-09T23:13:30.799Z,1.50
2018-02-09T23:15:58.274Z,1.40
2018-02-09T23:18:25.751Z,1.40
2018-02-09T23:20:53.244Z,1.40
2018-02-09T23:23:21.517Z,1.40
2018-02-09T23:25:49.783Z,1.40
2018-02-09T23:28:18.019Z,1.40
2018-02-09T23:30:45.517Z,1.40
2018-02-09T23:33:13.763Z,1.40
2018-02-09T23:35:41.262Z,1.40
2018-02-09T23:38:09.504Z,1.50
2018-02-09T23:40:36.998Z,1.40
2018-02-09T23:43:05.247Z,1.40
2018-02-09T23:45:32.740Z,1.40
2018-02-09T23:48:00.226Z,1.40
2018-02-09T23:50:27.702Z,1.50
2018-02-09T23:52:55.195Z,1.40
2018-02-09T23:55:23.453Z,1.50
2018-02-09T23:57:50.924Z,1.50
